createdAt,value
2019-02-28T00:00:15.996Z,97771.31
2019-02-28T00:02:44.278Z,97882.98
2019-02-28T00:05:12.533Z,97880.66
2019-02-28T00:07:40.795Z,97878.68
2019-02-28T00:10:09.051Z,97883.45
2019-02-28T00:12:37.300Z,97875.62
2019-02-28T00:15:09.573Z,97869.41
2019-02-28T00:17:42.567Z,97869.80
2019-02-28T00:20:09.005Z,97867.50
2019-02-28T00:22:37.265Z,97867.92
2019-02-28T00:25:07.610Z,97866.05
2019-02-28T00:27:35.859Z,97870.38
2019-02-28T00:30:06.916Z,97866.52
2019-02-28T00:32:35.187Z,97866.36
2019-02-28T00:35:04.044Z,97866.55
2019-02-28T00:37:32.314Z,97860.44
2019-02-28T00:40:00.569Z,97853.59
2019-02-28T00:42:28.840Z,97846.58
2019-02-28T00:44:57.110Z,97849.83
2019-02-28T00:47:25.369Z,97844.41
2019-02-28T00:49:55.582Z,97842.69
2019-02-28T00:52:23.631Z,97838.45
2019-02-28T00:54:51.890Z,97838.13
2019-02-28T00:57:20.153Z,97834.06
2019-02-28T00:59:48.418Z,97833.36
2019-02-28T01:02:17.570Z,97831.95
2019-02-28T01:04:46.792Z,97828.61
2019-02-28T01:07:16.335Z,97828.13
2019-02-28T01:09:45.198Z,97823.20
2019-02-28T01:12:18.744Z,97816.84
2019-02-28T01:14:43.442Z,97814.35
2019-02-28T01:17:11.714Z,97805.70
2019-02-28T01:19:41.253Z,97804.30
2019-02-28T01:22:09.995Z,97797.77
2019-02-28T01:24:38.251Z,97797.27
2019-02-28T01:27:06.545Z,97790.58
2019-02-28T01:29:35.699Z,97794.08
2019-02-28T01:32:04.646Z,97796.56
2019-02-28T01:34:33.070Z,97796.80
2019-02-28T01:37:01.373Z,97791.87
2019-02-28T01:39:30.700Z,97792.63
2019-02-28T01:41:59.078Z,97787.58
2019-02-28T01:44:27.342Z,97783.35
2019-02-28T01:46:55.612Z,97777.91
2019-02-28T01:49:25.943Z,97783.63
2019-02-28T01:51:53.879Z,97782.47
2019-02-28T01:54:22.151Z,97779.99
2019-02-28T01:56:50.507Z,97777.84
2019-02-28T01:59:21.603Z,97779.24
2019-02-28T02:01:48.746Z,97762.75
2019-02-28T02:04:17.033Z,97762.83
2019-02-28T02:06:45.298Z,97765.81
2019-02-28T02:09:13.559Z,97758.88
2019-02-28T02:11:41.843Z,97763.16
2019-02-28T02:14:10.969Z,97758.73
2019-02-28T02:16:40.068Z,97753.61
2019-02-28T02:19:08.343Z,97746.40
2019-02-28T02:21:36.590Z,97744.95
2019-02-28T02:24:04.884Z,97735.42
2019-02-28T02:26:33.156Z,97739.64
2019-02-28T02:29:01.921Z,97738.56
2019-02-28T02:31:30.253Z,97737.84
2019-02-28T02:33:58.510Z,97723.88
2019-02-28T02:36:26.777Z,97727.23
2019-02-28T02:38:55.030Z,97725.45
2019-02-28T02:41:23.316Z,97716.45
2019-02-28T02:43:55.031Z,97712.07
2019-02-28T02:46:21.576Z,97708.03
2019-02-28T02:48:49.838Z,97703.31
2019-02-28T02:51:18.096Z,97699.11
2019-02-28T02:53:46.356Z,97702.66
2019-02-28T02:56:14.616Z,97696.65
2019-02-28T02:58:42.884Z,97699.14
2019-02-28T03:01:11.145Z,97679.39
2019-02-28T03:03:42.704Z,97683.63
2019-02-28T03:06:13.838Z,97681.20
2019-02-28T03:08:39.386Z,97679.31
2019-02-28T03:11:07.673Z,97677.58
2019-02-28T03:13:42.176Z,97665.41
2019-02-28T03:16:05.911Z,97667.53
2019-02-28T03:18:34.180Z,97673.32
2019-02-28T03:21:02.442Z,97450.83
2019-02-28T03:23:38.139Z,97670.90
2019-02-28T03:26:05.754Z,97666.13
2019-02-28T03:28:31.954Z,97668.09
2019-02-28T03:31:11.726Z,97670.91
2019-02-28T03:33:30.665Z,97665.62
2019-02-28T03:35:58.941Z,97667.20
2019-02-28T03:38:27.198Z,97660.87
2019-02-28T03:40:55.467Z,97663.19
2019-02-28T03:43:23.732Z,97660.93
2019-02-28T03:45:51.989Z,97662.00
2019-02-28T03:48:20.260Z,97662.18
2019-02-28T03:50:48.517Z,97652.84
2019-02-28T03:53:19.996Z,97651.55
2019-02-28T03:55:46.793Z,97645.65
2019-02-28T03:58:15.052Z,97643.17
2019-02-28T04:00:43.338Z,97653.00
2019-02-28T04:03:11.590Z,97653.50
2019-02-28T04:05:39.848Z,97658.63
2019-02-28T04:08:08.142Z,97662.38
2019-02-28T04:10:36.395Z,97668.08
2019-02-28T04:13:04.649Z,97667.97
2019-02-28T04:15:32.917Z,97662.00
2019-02-28T04:18:07.087Z,97663.92
2019-02-28T04:20:35.922Z,97665.88
2019-02-28T04:23:01.371Z,97659.31
2019-02-28T04:25:29.609Z,97664.09
2019-02-28T04:27:57.884Z,97655.65
2019-02-28T04:30:26.203Z,97648.23
2019-02-28T04:32:54.461Z,97647.17
2019-02-28T04:35:25.287Z,97637.45
2019-02-28T04:37:52.748Z,97637.07
2019-02-28T04:40:21.074Z,97635.88
2019-02-28T04:42:49.337Z,97634.02
2019-02-28T04:45:17.588Z,97635.38
2019-02-28T04:47:45.859Z,97635.16
2019-02-28T04:50:14.180Z,97628.63
2019-02-28T04:52:47.952Z,96728.66
2019-02-28T04:55:37.214Z,97631.78
2019-02-28T04:58:04.499Z,97630.20
2019-02-28T05:00:32.780Z,97630.82
2019-02-28T05:03:01.071Z,97628.06
2019-02-28T05:05:29.331Z,97627.91
2019-02-28T05:07:57.834Z,97634.97
2019-02-28T05:10:26.217Z,97630.24
2019-02-28T05:12:54.473Z,97625.52
2019-02-28T05:15:22.743Z,97626.03
2019-02-28T05:17:53.139Z,97620.40
2019-02-28T05:20:21.223Z,97622.70
2019-02-28T05:22:49.749Z,97616.36
2019-02-28T05:25:18.832Z,97607.37
2019-02-28T05:27:48.907Z,97611.04
2019-02-28T05:30:19.621Z,97611.38
2019-02-28T05:32:47.938Z,97625.85
2019-02-28T05:35:16.210Z,97632.23
2019-02-28T05:37:48.238Z,97628.19
2019-02-28T05:40:17.642Z,97627.84
2019-02-28T05:42:46.145Z,97622.53
2019-02-28T05:45:15.763Z,97619.00
2019-02-28T05:47:46.849Z,97619.00
2019-02-28T05:50:17.282Z,97617.77
2019-02-28T05:52:45.838Z,97615.30
2019-02-28T05:55:14.130Z,97615.84
2019-02-28T05:57:48.114Z,97616.19
2019-02-28T06:00:20.864Z,97621.67
2019-02-28T06:02:49.160Z,97613.88
2019-02-28T06:05:20.112Z,97620.36
2019-02-28T06:07:48.370Z,97619.52
2019-02-28T06:10:16.642Z,97616.19
2019-02-28T06:12:45.168Z,97612.65
2019-02-28T06:15:14.833Z,97612.95
2019-02-28T06:17:43.113Z,97609.23
2019-02-28T06:20:16.476Z,97612.39
2019-02-28T06:22:42.464Z,97607.07
2019-02-28T06:25:11.606Z,97610.77
2019-02-28T06:27:41.811Z,97607.02
2019-02-28T06:30:14.433Z,97604.76
2019-02-28T06:32:42.705Z,97604.70
2019-02-28T06:35:16.126Z,97599.70
2019-02-28T06:37:41.025Z,97590.27
2019-02-28T06:40:15.689Z,97595.28
2019-02-28T06:42:46.637Z,97592.58
2019-02-28T06:45:18.037Z,97596.95
2019-02-28T06:47:49.622Z,97588.77
2019-02-28T06:50:16.571Z,97592.64
2019-02-28T06:52:44.809Z,97599.34
2019-02-28T06:55:14.892Z,97606.20
2019-02-28T06:57:43.249Z,97599.83
2019-02-28T07:00:16.099Z,97601.07
2019-02-28T07:02:44.435Z,97610.98
2019-02-28T07:05:12.693Z,97603.78
2019-02-28T07:07:40.975Z,97605.34
2019-02-28T07:10:12.737Z,97603.70
2019-02-28T07:12:41.570Z,97601.22
2019-02-28T07:15:10.407Z,97597.78
2019-02-28T07:17:38.715Z,97601.50
2019-02-28T07:20:13.191Z,97599.14
2019-02-28T07:22:41.446Z,97604.18
2019-02-28T07:25:12.770Z,97607.95
2019-02-28T07:27:40.696Z,97606.53
2019-02-28T07:30:18.774Z,97609.17
2019-02-28T07:32:46.856Z,97611.89
2019-02-28T07:35:15.178Z,97618.14
2019-02-28T07:37:43.467Z,97618.25
2019-02-28T07:40:16.258Z,97617.49
2019-02-28T07:42:43.869Z,97607.68
2019-02-28T07:45:13.368Z,97613.59
2019-02-28T07:47:41.758Z,97616.52
2019-02-28T07:50:13.275Z,97618.36
2019-02-28T07:52:41.546Z,97617.60
2019-02-28T07:55:14.125Z,97616.89
2019-02-28T07:57:42.370Z,97614.27
2019-02-28T08:00:22.531Z,97607.94
2019-02-28T08:02:50.818Z,97604.22
2019-02-28T08:05:19.114Z,97605.07
2019-02-28T08:07:51.993Z,97599.37
2019-02-28T08:10:28.368Z,97601.55
2019-02-28T08:12:56.682Z,97593.09
2019-02-28T08:15:26.090Z,97585.93
2019-02-28T08:17:54.476Z,97581.99
2019-02-28T08:20:22.743Z,97582.91
2019-02-28T08:22:51.070Z,97580.71
2019-02-28T08:25:20.582Z,97587.80
2019-02-28T08:27:48.940Z,97588.52
2019-02-28T08:30:20.671Z,97583.53
2019-02-28T08:32:49.151Z,97587.69
2019-02-28T08:35:17.488Z,97581.88
2019-02-28T08:37:45.781Z,97577.49
2019-02-28T08:40:19.911Z,97568.82
2019-02-28T08:42:49.905Z,97562.30
2019-02-28T08:45:18.273Z,97562.77
2019-02-28T08:47:46.581Z,97558.55
2019-02-28T08:50:23.997Z,97553.03
2019-02-28T08:52:53.830Z,97555.30
2019-02-28T08:55:28.752Z,97561.79
2019-02-28T08:57:55.887Z,97560.34
2019-02-28T09:00:23.223Z,97551.07
2019-02-28T09:02:52.899Z,97553.30
2019-02-28T09:05:25.660Z,97561.10
2019-02-28T09:07:52.030Z,97560.19
2019-02-28T09:10:21.461Z,97552.81
2019-02-28T09:12:49.733Z,97554.61
2019-02-28T09:15:20.974Z,97560.57
2019-02-28T09:17:49.811Z,97552.38
2019-02-28T09:20:18.105Z,97556.18
2019-02-28T09:22:46.452Z,97552.95
2019-02-28T09:25:22.080Z,97544.83
2019-02-28T09:27:49.988Z,97545.05
2019-02-28T09:30:29.768Z,97541.94
2019-02-28T09:32:57.784Z,97534.10
2019-02-28T09:35:26.085Z,97535.28
2019-02-28T09:37:54.351Z,97531.27
2019-02-28T09:40:25.921Z,97526.88
2019-02-28T09:42:52.639Z,97523.92
2019-02-28T09:45:22.435Z,97518.72
2019-02-28T09:47:50.705Z,97526.47
2019-02-28T09:50:22.578Z,97523.51
2019-02-28T09:52:51.142Z,97522.70
2019-02-28T09:55:19.415Z,97528.23
2019-02-28T09:57:53.713Z,97524.82
2019-02-28T10:00:28.590Z,97529.98
2019-02-28T10:02:56.852Z,97531.30
2019-02-28T10:05:25.147Z,97534.46
2019-02-28T10:07:53.400Z,97524.09
2019-02-28T10:10:26.596Z,97522.64
2019-02-28T10:12:56.871Z,97509.67
2019-02-28T10:15:26.016Z,97516.49
2019-02-28T10:17:54.291Z,97509.05
2019-02-28T10:20:39.602Z,97502.88
2019-02-28T10:23:07.866Z,97507.06
2019-02-28T10:25:41.038Z,97504.16
2019-02-28T10:28:07.958Z,97505.78
2019-02-28T10:30:37.971Z,97494.19
2019-02-28T10:33:06.303Z,97487.72
2019-02-28T10:35:36.903Z,97487.64
2019-02-28T10:38:04.626Z,97494.08
2019-02-28T10:40:32.886Z,97479.89
2019-02-28T10:43:01.193Z,97483.59
2019-02-28T10:45:29.458Z,97476.94
2019-02-28T10:48:02.971Z,97477.95
2019-02-28T10:50:33.219Z,97475.10
2019-02-28T10:53:04.044Z,97473.81
2019-02-28T10:55:30.954Z,97476.81
2019-02-28T10:57:59.220Z,97471.73
2019-02-28T11:00:32.667Z,97477.45
2019-02-28T11:03:01.933Z,97473.64
2019-02-28T11:05:35.101Z,97473.11
2019-02-28T11:08:03.867Z,97464.67
2019-02-28T11:10:37.972Z,97454.87
2019-02-28T11:13:08.674Z,97465.91
2019-02-28T11:15:36.937Z,97452.33
2019-02-28T11:18:09.752Z,97447.31
2019-02-28T11:20:36.754Z,97444.80
2019-02-28T11:23:05.107Z,97453.19
2019-02-28T11:25:35.506Z,97455.92
2019-02-28T11:28:03.342Z,97444.10
2019-02-28T11:30:32.558Z,97445.97
2019-02-28T11:33:04.505Z,97436.91
2019-02-28T11:35:31.316Z,97439.38
2019-02-28T11:37:59.589Z,97434.67
2019-02-28T11:40:29.284Z,97425.38
2019-02-28T11:42:59.362Z,97407.49
2019-02-28T11:45:30.684Z,97415.98
2019-02-28T11:48:00.804Z,97417.88
2019-02-28T11:50:29.073Z,97420.91
2019-02-28T11:53:03.107Z,97407.77
2019-02-28T11:55:27.328Z,97410.52
2019-02-28T11:58:01.453Z,97401.20
2019-02-28T12:00:36.518Z,97407.98
2019-02-28T12:03:05.705Z,97406.75
2019-02-28T12:05:34.162Z,97409.59
2019-02-28T12:08:02.422Z,97394.45
2019-02-28T12:10:30.695Z,97388.14
2019-02-28T12:12:58.962Z,97393.97
2019-02-28T12:15:31.910Z,97388.16
2019-02-28T12:18:03.635Z,97389.48
2019-02-28T12:20:30.184Z,97374.06
2019-02-28T12:22:58.436Z,97380.14
2019-02-28T12:25:26.705Z,97381.61
2019-02-28T12:27:55.323Z,97383.38
2019-02-28T12:30:26.406Z,97389.09
2019-02-28T12:32:54.683Z,97381.92
2019-02-28T12:35:22.936Z,97390.72
2019-02-28T12:37:53.968Z,97370.18
2019-02-28T12:40:26.782Z,97381.05
2019-02-28T12:42:55.094Z,97366.65
2019-02-28T12:45:35.243Z,97370.53
2019-02-28T12:48:03.499Z,97370.93
2019-02-28T12:50:31.952Z,97354.34
2019-02-28T12:53:01.848Z,97368.33
2019-02-28T12:55:30.668Z,97358.03
2019-02-28T12:57:59.192Z,97362.33
2019-02-28T13:00:30.702Z,97366.89
2019-02-28T13:03:02.785Z,97352.53
2019-02-28T13:05:34.692Z,97352.38
2019-02-28T13:08:05.826Z,97363.91
2019-02-28T13:10:33.104Z,97359.40
2019-02-28T13:13:06.306Z,97352.08
2019-02-28T13:15:31.514Z,97351.97
2019-02-28T13:17:59.911Z,97350.19
2019-02-28T13:20:33.512Z,97350.64
2019-02-28T13:23:01.117Z,97346.52
2019-02-28T13:25:29.766Z,97347.19
2019-02-28T13:27:58.170Z,97352.79
2019-02-28T13:30:27.429Z,97348.30
2019-02-28T13:32:56.377Z,97341.42
2019-02-28T13:35:30.829Z,97334.88
2019-02-28T13:37:59.221Z,97336.34
2019-02-28T13:40:27.695Z,97339.52
2019-02-28T13:42:56.253Z,97331.67
2019-02-28T13:45:25.040Z,97333.25
2019-02-28T13:47:53.623Z,97024.94
2019-02-28T13:50:29.296Z,97324.75
2019-02-28T13:53:02.500Z,97331.89
2019-02-28T13:55:32.443Z,97342.36
2019-02-28T13:58:05.530Z,97329.36
2019-02-28T14:00:43.997Z,97331.09
2019-02-28T14:03:12.828Z,97339.77
2019-02-28T14:05:42.298Z,97333.34
2019-02-28T14:08:16.537Z,97326.83
2019-02-28T14:11:00.244Z,97329.93
2019-02-28T14:13:42.857Z,96780.56
2019-02-28T14:16:20.316Z,97107.40
2019-02-28T14:18:56.524Z,97333.89
2019-02-28T14:21:37.055Z,97340.94
2019-02-28T14:24:07.989Z,97331.80
2019-02-28T14:26:43.007Z,97326.48
2019-02-28T14:29:11.742Z,97317.30
2019-02-28T14:31:40.173Z,97329.09
2019-02-28T14:34:08.530Z,97326.87
2019-02-28T14:36:36.822Z,97325.02
2019-02-28T14:39:08.432Z,97326.66
2019-02-28T14:41:36.614Z,97315.98
2019-02-28T14:44:04.962Z,97316.59
2019-02-28T14:46:34.709Z,97309.48
2019-02-28T14:49:03.187Z,97311.20
2019-02-28T14:51:31.442Z,97303.39
2019-02-28T14:53:59.729Z,97292.55
2019-02-28T14:56:28.008Z,97290.75
2019-02-28T14:58:57.521Z,97292.66
2019-02-28T15:01:25.858Z,97285.91
2019-02-28T15:03:54.225Z,97287.29
2019-02-28T15:06:22.525Z,97280.42
2019-02-28T15:08:51.929Z,97277.81
2019-02-28T15:11:20.359Z,97282.13
2019-02-28T15:13:48.628Z,97288.68
2019-02-28T15:16:16.932Z,97279.66
2019-02-28T15:18:47.468Z,97281.48
2019-02-28T15:21:16.144Z,97285.94
2019-02-28T15:23:44.445Z,97274.20
2019-02-28T15:26:12.710Z,97282.67
2019-02-28T15:28:40.992Z,97278.31
2019-02-28T15:31:09.461Z,97273.47
2019-02-28T15:33:37.656Z,97272.08
2019-02-28T15:36:05.930Z,97276.03
2019-02-28T15:38:34.295Z,97269.56
2019-02-28T15:41:02.651Z,97270.85
2019-02-28T15:43:30.974Z,97265.95
2019-02-28T15:45:59.232Z,97271.20
2019-02-28T15:48:27.565Z,97266.68
2019-02-28T15:50:55.852Z,97269.03
2019-02-28T15:53:24.172Z,97263.14
2019-02-28T15:55:52.465Z,97263.24
2019-02-28T15:58:20.726Z,97262.69
2019-02-28T16:00:48.990Z,97267.64
2019-02-28T16:03:17.500Z,97269.08
2019-02-28T16:05:45.779Z,97266.34
2019-02-28T16:08:14.047Z,97266.98
2019-02-28T16:10:52.636Z,97260.45
2019-02-28T16:13:12.302Z,97264.94
2019-02-28T16:15:43.285Z,97260.93
2019-02-28T16:18:11.959Z,97261.61
2019-02-28T16:20:40.533Z,97261.98
2019-02-28T16:23:08.825Z,97258.16
2019-02-28T16:25:38.017Z,97261.70
2019-02-28T16:28:08.786Z,97257.69
2019-02-28T16:30:37.904Z,97258.72
2019-02-28T16:33:06.160Z,97254.11
2019-02-28T16:35:34.436Z,97254.23
2019-02-28T16:38:02.698Z,97255.56
2019-02-28T16:40:31.705Z,97254.48
2019-02-28T16:42:59.963Z,97251.34
2019-02-28T16:45:33.386Z,97259.05
2019-02-28T16:48:03.357Z,97259.16
2019-02-28T16:50:31.617Z,97261.97
2019-02-28T16:52:59.916Z,97262.45
2019-02-28T16:55:30.971Z,97271.55
2019-02-28T16:57:58.208Z,97269.39
2019-02-28T17:00:26.661Z,97266.14
2019-02-28T17:02:54.916Z,97269.11
2019-02-28T17:05:26.492Z,97271.27
2019-02-28T17:07:53.162Z,97269.86
2019-02-28T17:10:23.102Z,97277.89
2019-02-28T17:13:04.737Z,97284.33
2019-02-28T17:15:46.599Z,97284.56
2019-02-28T17:18:21.480Z,97287.09
2019-02-28T17:20:49.078Z,97287.98
2019-02-28T17:23:18.642Z,97293.23
2019-02-28T17:25:47.147Z,97289.89
2019-02-28T17:28:17.099Z,97294.09
2019-02-28T17:30:56.004Z,97296.16
2019-02-28T17:33:24.344Z,97294.80
2019-02-28T17:35:52.670Z,97297.42
2019-02-28T17:38:20.931Z,97305.53
2019-02-28T17:40:49.263Z,97307.05
2019-02-28T17:43:17.555Z,97312.49
2019-02-28T17:45:47.284Z,97310.82
2019-02-28T17:48:52.707Z,97312.30
2019-02-28T17:51:36.496Z,97315.85
2019-02-28T17:54:13.805Z,97317.20
2019-02-28T17:57:03.238Z,97321.31
2019-02-28T17:59:42.021Z,97317.91
2019-02-28T18:02:39.301Z,97323.09
2019-02-28T18:05:30.327Z,97320.69
2019-02-28T18:08:21.575Z,97319.09
2019-02-28T18:11:12.563Z,97323.77
2019-02-28T18:14:05.317Z,97324.64
2019-02-28T18:16:48.734Z,97204.26
2019-02-28T18:19:32.779Z,97326.37
2019-02-28T18:22:15.767Z,97324.81
2019-02-28T18:25:03.974Z,97326.37
2019-02-28T18:27:50.748Z,97329.20
2019-02-28T18:30:47.471Z,97326.25
2019-02-28T18:33:15.728Z,97321.27
2019-02-28T18:35:43.987Z,97323.63
2019-02-28T18:38:12.249Z,97331.49
2019-02-28T18:40:40.516Z,97327.91
2019-02-28T18:43:08.776Z,97332.59
2019-02-28T18:45:37.045Z,97330.06
2019-02-28T18:48:05.320Z,97337.63
2019-02-28T18:50:33.588Z,97338.64
2019-02-28T18:53:06.969Z,97345.66
2019-02-28T18:55:35.319Z,97346.83
2019-02-28T18:58:03.559Z,97347.13
2019-02-28T19:00:31.820Z,97344.90
2019-02-28T19:03:00.085Z,97343.78
2019-02-28T19:05:28.349Z,97346.58
2019-02-28T19:07:56.610Z,97354.82
2019-02-28T19:10:24.902Z,97354.44
2019-02-28T19:12:53.159Z,97359.78
2019-02-28T19:15:21.414Z,97363.89
2019-02-28T19:17:49.678Z,97364.19
2019-02-28T19:20:17.940Z,97357.44
2019-02-28T19:22:46.219Z,97359.61
2019-02-28T19:25:14.481Z,97361.66
2019-02-28T19:27:42.781Z,97361.58
2019-02-28T19:30:15.246Z,97368.47
2019-02-28T19:32:43.551Z,97366.09
2019-02-28T19:35:11.800Z,97367.64
2019-02-28T19:37:40.076Z,97370.27
2019-02-28T19:40:13.180Z,97374.77
2019-02-28T19:42:41.456Z,97370.90
2019-02-28T19:45:13.060Z,97375.99
2019-02-28T19:47:41.427Z,97378.20
2019-02-28T19:50:10.846Z,97378.59
2019-02-28T19:52:39.171Z,97374.06
2019-02-28T19:55:14.595Z,97372.43
2019-02-28T19:57:42.943Z,97368.34
2019-02-28T20:00:16.651Z,97383.41
2019-02-28T20:02:44.954Z,97380.98
2019-02-28T20:05:13.494Z,97388.17
2019-02-28T20:07:41.789Z,97389.85
2019-02-28T20:10:15.041Z,97387.99
2019-02-28T20:12:43.404Z,97391.02
2019-02-28T20:15:15.928Z,97394.70
2019-02-28T20:17:44.258Z,97401.50
2019-02-28T20:20:21.750Z,97399.77
2019-02-28T20:22:50.034Z,97272.80
2019-02-28T20:25:18.339Z,97406.84
2019-02-28T20:27:46.646Z,97409.92
2019-02-28T20:30:18.185Z,97404.69
2019-02-28T20:32:46.469Z,97413.91
2019-02-28T20:35:14.847Z,97419.63
2019-02-28T20:37:43.202Z,97416.41
2019-02-28T20:40:20.580Z,97412.84
2019-02-28T20:42:48.884Z,97417.08
2019-02-28T20:45:17.137Z,97425.71
2019-02-28T20:47:45.445Z,97433.53
2019-02-28T20:50:17.063Z,97432.18
2019-02-28T20:52:45.394Z,97435.17
2019-02-28T20:55:13.702Z,97428.41
2019-02-28T20:57:41.997Z,97431.50
2019-02-28T21:00:19.525Z,97437.50
2019-02-28T21:02:55.397Z,97441.45
2019-02-28T21:05:23.775Z,97445.91
2019-02-28T21:07:52.063Z,97452.51
2019-02-28T21:10:20.443Z,97442.34
2019-02-28T21:12:48.724Z,97453.97
2019-02-28T21:15:17.035Z,97446.87
2019-02-28T21:17:45.342Z,97468.33
2019-02-28T21:20:15.734Z,97458.77
2019-02-28T21:22:44.037Z,97450.61
2019-02-28T21:25:18.986Z,97458.91
2019-02-28T21:27:47.302Z,97462.37
2019-02-28T21:30:26.282Z,97470.02
2019-02-28T21:32:54.604Z,97470.23
2019-02-28T21:35:23.115Z,97476.05
2019-02-28T21:37:51.471Z,97471.38
2019-02-28T21:40:20.880Z,97478.92
2019-02-28T21:42:49.270Z,97477.52
2019-02-28T21:45:22.173Z,97481.02
2019-02-28T21:47:50.460Z,97478.77
2019-02-28T21:50:18.933Z,97483.59
2019-02-28T21:52:47.211Z,97480.28
2019-02-28T21:55:16.422Z,97440.78
2019-02-28T21:57:44.806Z,97477.61
2019-02-28T22:00:21.923Z,97472.11
2019-02-28T22:02:50.260Z,97476.52
2019-02-28T22:05:18.544Z,97473.80
2019-02-28T22:07:46.877Z,97472.11
2019-02-28T22:10:15.892Z,97476.23
2019-02-28T22:12:44.179Z,97475.96
2019-02-28T22:15:17.946Z,97463.29
2019-02-28T22:17:46.229Z,97465.59
2019-02-28T22:20:14.978Z,97461.98
2019-02-28T22:22:43.270Z,97473.07
2019-02-28T22:25:13.128Z,97462.96
2019-02-28T22:27:41.413Z,97461.38
2019-02-28T22:30:26.576Z,97466.30
2019-02-28T22:32:56.513Z,97466.59
2019-02-28T22:35:26.435Z,97460.36
2019-02-28T22:37:54.745Z,97461.30
2019-02-28T22:40:23.036Z,97458.94
2019-02-28T22:42:51.347Z,97454.47
2019-02-28T22:45:19.625Z,97452.06
2019-02-28T22:47:47.898Z,97455.10
2019-02-28T22:50:16.193Z,97452.89
2019-02-28T22:52:44.556Z,97447.65
2019-02-28T22:55:12.850Z,97448.91
2019-02-28T22:57:41.172Z,97437.76
2019-02-28T23:00:12.773Z,97427.72
2019-02-28T23:02:41.141Z,97422.69
2019-02-28T23:05:09.514Z,97432.67
2019-02-28T23:07:37.812Z,97448.25
2019-02-28T23:10:07.613Z,97450.80
2019-02-28T23:12:35.910Z,97456.97
2019-02-28T23:15:05.806Z,97454.90
2019-02-28T23:17:34.101Z,97444.27
2019-02-28T23:20:02.462Z,97444.48
2019-02-28T23:22:30.736Z,97442.20
2019-02-28T23:24:59.066Z,97436.89
2019-02-28T23:27:27.395Z,97443.90
2019-02-28T23:29:59.084Z,97451.80
2019-02-28T23:32:39.326Z,97444.48
2019-02-28T23:35:11.006Z,97407.70
2019-02-28T23:37:39.342Z,97442.34
2019-02-28T23:40:07.650Z,97444.38
2019-02-28T23:42:35.953Z,97440.39
2019-02-28T23:45:05.380Z,97437.77
2019-02-28T23:47:33.653Z,97433.67
2019-02-28T23:50:01.970Z,97437.22
2019-02-28T23:52:30.283Z,97435.63
2019-02-28T23:54:58.589Z,97430.88
2019-02-28T23:57:26.870Z,97428.80
2019-02-28T23:59:55.125Z,97442.27
